Time;durP1;ratioP1;P1;durP2;ratioP2;P2;SDS_P1;SDS_P2;PMS_P1;PMS_P2;Temp;Humidity;BMP_temperature;BMP_pressure;BME280_temperature;BME280_humidity;BME280_pressure;Samples;Min_cycle;Max_cycle;Signal;HPM_P1;HPM_P2
2023/04/13 00:01:24;;;;;;;6.70;1.20;;;;;;;18.68;33.78;100949.81;5094299;28;20427;-47
2023/04/13 00:03:51;;;;;;;5.93;1.45;;;;;;;18.41;34.24;100944.38;5094939;28;20043;-47
2023/04/13 00:06:18;;;;;;;4.95;1.75;;;;;;;18.34;33.70;100941.06;5088670;28;20048;-48
2023/04/13 00:08:45;;;;;;;7.57;1.80;;;;;;;17.87;34.70;100929.94;5074572;28;20082;-45
2023/04/13 00:11:12;;;;;;;5.00;1.48;;;;;;;17.91;36.22;100931.06;5090091;28;20028;-48
2023/04/13 00:13:46;;;;;;;4.38;1.50;;;;;;;17.78;36.25;100931.47;5082955;28;20024;-46
2023/04/13 00:16:14;;;;;;;4.22;1.35;;;;;;;17.53;37.26;100934.59;5095065;28;20052;-46
2023/04/13 00:18:41;;;;;;;3.83;1.73;;;;;;;17.34;36.65;100925.97;5093595;28;20085;-48
2023/04/13 00:21:07;;;;;;;4.93;1.55;;;;;;;17.28;37.08;100933.19;5094558;28;20020;-46
2023/04/13 00:23:35;;;;;;;8.48;2.40;;;;;;;17.29;37.11;100928.59;5083725;28;20029;-46
2023/04/13 00:26:01;;;;;;;4.70;1.70;;;;;;;17.24;37.01;100936.63;5097528;28;20032;-47
2023/04/13 00:28:28;;;;;;;8.80;1.63;;;;;;;17.29;37.05;100939.41;5094352;28;20046;-47
2023/04/13 00:30:55;;;;;;;5.35;1.55;;;;;;;17.38;37.03;100927.13;5075099;28;20028;-48
2023/04/13 00:33:21;;;;;;;5.40;1.63;;;;;;;17.00;37.94;100936.00;5076378;28;20021;-48
2023/04/13 00:35:47;;;;;;;5.05;1.55;;;;;;;16.94;37.49;100931.59;5085317;28;20099;-47
2023/04/13 00:38:13;;;;;;;5.03;1.63;;;;;;;16.76;39.18;100929.91;5090813;28;20546;-48
2023/04/13 00:40:41;;;;;;;7.78;2.60;;;;;;;16.83;39.47;100915.19;5102103;28;20031;-49
2023/04/13 00:43:07;;;;;;;5.00;2.00;;;;;;;16.79;39.55;100918.63;5094125;28;20031;-47
2023/04/13 00:45:38;;;;;;;6.80;2.15;;;;;;;16.85;39.87;100913.06;5074019;28;20028;-48
2023/04/13 00:48:08;;;;;;;4.63;1.63;;;;;;;16.72;38.41;100915.28;5073054;28;20025;-50
2023/04/13 00:50:34;;;;;;;5.72;1.73;;;;;;;16.79;38.42;100918.63;5074274;28;20031;-46
2023/04/13 00:53:01;;;;;;;5.18;1.50;;;;;;;16.59;38.56;100919.06;5072621;28;20059;-46
2023/04/13 00:55:28;;;;;;;8.45;2.17;;;;;;;16.53;38.88;100915.44;5074163;28;20024;-47
2023/04/13 00:57:54;;;;;;;4.18;1.58;;;;;;;16.52;39.50;100915.69;5074199;28;20384;-47
2023/04/13 01:00:23;;;;;;;6.50;2.20;;;;;;;16.54;39.02;100914.38;5073973;28;20025;-47
2023/04/13 01:02:51;;;;;;;6.03;1.65;;;;;;;16.54;39.09;100924.38;5073735;28;20094;-49
2023/04/13 01:05:17;;;;;;;4.22;1.33;;;;;;;16.66;38.87;100916.19;5073980;28;20055;-46
2023/04/13 01:07:49;;;;;;;6.63;1.92;;;;;;;16.56;39.25;100916.84;5073926;28;20078;-47
2023/04/13 01:10:24;;;;;;;3.90;1.77;;;;;;;16.24;40.04;100913.84;5073970;28;20028;-49
2023/04/13 01:12:58;;;;;;;5.00;2.08;;;;;;;16.00;41.32;100916.63;5088128;28;20035;-46
2023/04/13 01:15:27;;;;;;;8.98;1.98;;;;;;;16.00;42.27;100913.13;5094364;28;20115;-47
2023/04/13 01:17:58;;;;;;;5.38;1.88;;;;;;;15.88;41.71;100921.25;5094303;28;20484;-47
2023/04/13 01:20:28;;;;;;;5.38;2.13;;;;;;;15.96;40.28;100911.94;5089766;28;20024;-48
2023/04/13 01:22:59;;;;;;;5.40;1.92;;;;;;;15.98;41.03;100913.34;5072701;28;20069;-47
2023/04/13 01:25:30;;;;;;;6.97;1.90;;;;;;;15.88;41.50;100915.00;5071890;28;20468;-47
2023/04/13 01:28:00;;;;;;;6.18;2.53;;;;;;;15.72;42.40;100914.72;5087589;28;20118;-45
2023/04/13 01:30:30;;;;;;;11.13;2.25;;;;;;;15.74;41.89;100914.47;5093374;28;20384;-47
2023/04/13 01:32:58;;;;;;;10.13;2.60;;;;;;;15.43;42.73;100919.16;5093252;28;20500;-48
2023/04/13 01:35:25;;;;;;;9.07;2.65;;;;;;;15.09;43.43;100937.00;5093293;28;20028;-47
2023/04/13 01:37:52;;;;;;;7.07;2.25;;;;;;;15.14;43.20;100920.13;5093413;28;20106;-47
2023/04/13 01:40:20;;;;;;;7.72;2.13;;;;;;;14.99;43.50;100925.97;5092510;28;20028;-51
2023/04/13 01:42:46;;;;;;;7.78;2.30;;;;;;;14.95;44.36;100935.59;5092767;28;20036;-46
2023/04/13 01:45:22;;;;;;;9.52;2.45;;;;;;;15.03;43.91;100932.53;5092681;28;20024;-45
2023/04/13 01:47:57;;;;;;;6.45;2.00;;;;;;;15.13;44.21;100922.00;5090329;28;20030;-45
2023/04/13 01:50:32;;;;;;;7.80;2.65;;;;;;;14.92;44.13;100931.47;5093233;28;20048;-46
2023/04/13 01:53:10;;;;;;;9.77;2.45;;;;;;;14.85;43.91;100932.66;5090728;28;20035;-46
2023/04/13 01:55:40;;;;;;;10.52;2.83;;;;;;;14.88;44.69;100930.31;5088076;28;20059;-47
2023/04/13 01:58:10;;;;;;;8.38;2.53;;;;;;;14.92;44.55;100919.88;5099264;28;20052;-46
2023/04/13 02:00:36;;;;;;;14.32;3.20;;;;;;;14.78;44.73;100919.28;5089064;28;20036;-48
2023/04/13 02:03:08;;;;;;;10.05;2.60;;;;;;;14.78;45.00;100913.91;5099440;28;20024;-46
2023/04/13 02:05:36;;;;;;;6.90;2.20;;;;;;;14.73;45.30;100917.28;5090491;28;20043;-46
2023/04/13 02:08:04;;;;;;;11.65;2.58;;;;;;;14.56;44.85;100910.09;5092683;28;20459;-46
2023/04/13 02:10:35;;;;;;;11.68;2.55;;;;;;;14.36;45.26;100908.47;5092877;28;20012;-46
2023/04/13 02:13:06;;;;;;;24.80;3.50;;;;;;;14.16;45.55;100916.03;5086887;28;20085;-48
2023/04/13 02:15:36;;;;;;;8.95;2.42;;;;;;;13.91;46.17;100925.00;5079017;28;20036;-48
2023/04/13 02:18:06;;;;;;;9.60;2.38;;;;;;;13.84;46.75;100920.78;5088955;28;20050;-47
2023/04/13 02:20:44;;;;;;;12.00;3.30;;;;;;;13.88;46.55;100912.03;5091324;28;20127;-47
2023/04/13 02:23:15;;;;;;;8.18;2.90;;;;;;;13.80;47.00;100909.63;5086161;28;20028;-46
2023/04/13 02:25:45;;;;;;;12.30;3.85;;;;;;;13.58;46.76;100905.75;5092793;28;20064;-47
2023/04/13 02:28:11;;;;;;;7.07;2.60;;;;;;;13.45;47.56;100907.56;5091711;28;20492;-47
2023/04/13 02:30:38;;;;;;;6.30;2.20;;;;;;;13.45;47.25;100912.94;5092893;28;20059;-47
2023/04/13 02:33:06;;;;;;;10.27;2.83;;;;;;;13.24;48.12;100897.22;5091133;28;20082;-46
2023/04/13 02:35:33;;;;;;;12.18;3.03;;;;;;;13.15;48.83;100901.19;5093233;28;20063;-48
2023/04/13 02:37:59;;;;;;;14.93;3.13;;;;;;;13.22;48.06;100899.31;5092466;28;20036;-47
2023/04/13 02:40:26;;;;;;;8.88;2.97;;;;;;;13.31;48.21;100903.34;5092344;28;20038;-47
2023/04/13 02:42:55;;;;;;;10.68;2.50;;;;;;;13.21;48.23;100905.72;5091672;28;20024;-47
2023/04/13 02:45:22;;;;;;;13.30;2.63;;;;;;;13.34;48.12;100902.09;5092458;28;20039;-46
2023/04/13 02:47:49;;;;;;;8.52;2.50;;;;;;;13.33;48.73;100903.97;5092333;28;20407;-47
2023/04/13 02:50:16;;;;;;;7.05;2.83;;;;;;;13.41;48.85;100914.41;5092150;28;20020;-45
2023/04/13 02:52:42;;;;;;;5.32;2.83;;;;;;;13.34;48.58;100908.28;5091632;28;20052;-47
2023/04/13 02:55:09;;;;;;;14.00;3.50;;;;;;;13.18;49.12;100909.66;5092220;28;20465;-47
2023/04/13 02:57:35;;;;;;;9.63;3.53;;;;;;;12.96;49.59;100911.09;5092314;28;20048;-46
2023/04/13 03:00:08;;;;;;;11.68;3.33;;;;;;;13.15;49.57;100914.63;5083466;28;20024;-48
2023/04/13 03:02:36;;;;;;;11.05;3.20;;;;;;;13.17;49.53;100917.94;5070834;28;20159;-45
2023/04/13 03:05:06;;;;;;;7.63;3.08;;;;;;;13.11;49.85;100918.81;5071661;28;20062;-46
2023/04/13 03:07:33;;;;;;;7.57;3.22;;;;;;;13.20;49.56;100920.16;5071556;28;20020;-46
2023/04/13 03:10:09;;;;;;;11.40;3.67;;;;;;;13.19;48.93;100927.41;5088161;28;20028;-46
2023/04/13 03:12:36;;;;;;;12.52;3.72;;;;;;;13.16;49.13;100929.75;5091894;28;20028;-45
2023/04/13 03:15:03;;;;;;;14.80;3.20;;;;;;;13.06;49.79;100930.22;5090678;28;20504;-48
2023/04/13 03:17:30;;;;;;;12.68;2.92;;;;;;;13.04;49.75;100928.78;5093530;28;20028;-48
2023/04/13 03:19:57;;;;;;;8.25;3.10;;;;;;;12.90;49.94;100915.47;5095099;28;20599;-49
2023/04/13 03:22:24;;;;;;;11.18;2.80;;;;;;;12.92;49.74;100926.00;5093983;28;20028;-48
2023/04/13 03:24:51;;;;;;;6.80;2.67;;;;;;;12.91;49.94;100927.03;5094909;28;20031;-47
2023/04/13 03:27:20;;;;;;;11.13;3.78;;;;;;;12.52;50.98;100920.94;5094667;28;20024;-47
2023/04/13 03:29:46;;;;;;;10.30;2.92;;;;;;;12.68;50.51;100923.09;5094963;28;20451;-46
2023/04/13 03:32:12;;;;;;;11.18;2.65;;;;;;;12.79;50.52;100934.16;5095396;28;20388;-46
2023/04/13 03:34:42;;;;;;;11.30;2.65;;;;;;;12.81;50.42;100940.13;5094784;28;20032;-47
2023/04/13 03:37:10;;;;;;;9.02;2.75;;;;;;;12.90;49.78;100936.16;5095416;28;20024;-48
2023/04/13 03:39:38;;;;;;;8.65;2.30;;;;;;;12.79;50.03;100943.06;5095022;28;20085;-48
2023/04/13 03:42:04;;;;;;;6.43;2.20;;;;;;;12.77;50.15;100942.47;5087145;28;20025;-47
2023/04/13 03:44:31;;;;;;;13.52;2.58;;;;;;;12.91;50.33;100945.84;5075460;28;20767;-48
2023/04/13 03:46:57;;;;;;;10.57;3.25;;;;;;;12.87;50.65;100950.00;5076996;28;20086;-52
2023/04/13 03:49:23;;;;;;;8.80;2.70;;;;;;;12.83;49.82;100956.88;5073441;28;20025;-47
2023/04/13 03:51:50;;;;;;;12.50;3.45;;;;;;;12.80;50.23;100955.44;5090765;28;20107;-47
2023/04/13 03:54:16;;;;;;;10.60;3.22;;;;;;;12.93;50.43;100939.19;5093768;28;20515;-47
2023/04/13 03:56:42;;;;;;;9.25;3.13;;;;;;;12.81;50.48;100943.66;5094985;28;20028;-50
2023/04/13 03:59:09;;;;;;;12.50;2.38;;;;;;;12.64;50.85;100950.59;5093936;28;20032;-47
2023/04/13 04:01:36;;;;;;;9.15;2.40;;;;;;;12.53;51.27;100951.28;5091792;28;20086;-47
2023/04/13 04:04:03;;;;;;;10.50;3.00;;;;;;;12.53;51.10;100949.41;5102179;28;20353;-46
2023/04/13 04:06:30;;;;;;;9.60;2.70;;;;;;;12.41;51.56;100961.88;5073921;28;20112;-46
2023/04/13 04:08:56;;;;;;;9.02;2.65;;;;;;;12.26;51.81;100967.53;5084441;28;20138;-47
2023/04/13 04:11:22;;;;;;;13.88;3.17;;;;;;;12.33;51.94;100981.75;5093324;28;20115;-47
2023/04/13 04:13:48;;;;;;;10.00;2.53;;;;;;;12.29;52.10;100975.16;5094059;28;20052;-46
2023/04/13 04:16:15;;;;;;;9.30;2.83;;;;;;;12.31;51.63;100970.38;5093876;28;20044;-47
2023/04/13 04:18:42;;;;;;;8.18;2.97;;;;;;;12.34;51.98;100975.34;5093935;28;20028;-48
2023/04/13 04:21:10;;;;;;;10.00;2.72;;;;;;;12.31;52.76;100973.06;5073225;28;20028;-48
2023/04/13 04:23:38;;;;;;;6.82;2.35;;;;;;;12.39;52.01;100974.72;5073140;28;20055;-48
2023/04/13 04:26:06;;;;;;;9.10;2.80;;;;;;;12.42;52.25;100983.13;5074625;28;20016;-46
2023/04/13 04:28:38;;;;;;;9.27;2.95;;;;;;;12.38;52.48;100986.47;5073698;28;20086;-55
2023/04/13 04:31:09;;;;;;;15.30;2.58;;;;;;;12.37;52.40;100977.59;5078430;28;20019;-48
2023/04/13 04:33:39;;;;;;;8.75;2.78;;;;;;;12.46;51.93;100982.72;5094514;28;20024;-45
2023/04/13 04:36:08;;;;;;;9.80;2.97;;;;;;;11.99;53.37;100976.72;5097743;28;20028;-46
2023/04/13 04:38:35;;;;;;;16.95;3.58;;;;;;;11.91;53.20;100983.16;5114785;28;20078;-45
2023/04/13 04:41:01;;;;;;;11.77;3.05;;;;;;;11.75;53.74;100981.72;5096090;28;20472;-46
2023/04/13 04:43:29;;;;;;;12.63;3.53;;;;;;;11.75;54.62;100984.41;5094054;28;20031;-46
2023/04/13 04:46:01;;;;;;;9.48;2.90;;;;;;;11.78;53.87;100989.34;5094662;28;20039;-46
2023/04/13 04:48:30;;;;;;;9.85;2.72;;;;;;;11.79;53.84;100991.00;5094307;28;20020;-46
2023/04/13 04:50:56;;;;;;;9.32;3.05;;;;;;;11.83;53.84;100994.94;5094019;28;20028;-47
2023/04/13 04:53:23;;;;;;;10.55;3.00;;;;;;;11.89;53.93;101006.69;5099747;28;20036;-50
2023/04/13 04:55:50;;;;;;;8.52;2.75;;;;;;;11.89;53.92;101002.16;5114410;27;20414;-48
2023/04/13 04:58:18;;;;;;;11.65;3.22;;;;;;;12.02;53.47;100995.91;5095263;27;20132;-46
2023/04/13 05:00:46;;;;;;;10.15;2.97;;;;;;;11.75;54.11;101002.34;5094011;28;20020;-48
2023/04/13 05:03:12;;;;;;;10.60;2.60;;;;;;;11.72;55.17;101006.28;5093834;28;20031;-47
2023/04/13 05:05:39;;;;;;;5.03;2.20;;;;;;;11.72;54.92;101008.97;5082923;28;20028;-50
2023/04/13 05:08:05;;;;;;;12.25;3.88;;;;;;;11.72;54.68;101014.34;5074299;28;20028;-49
2023/04/13 05:10:31;;;;;;;8.95;2.97;;;;;;;11.87;54.09;101006.06;5074218;28;20025;-49
2023/04/13 05:12:57;;;;;;;8.35;2.92;;;;;;;11.63;54.97;101007.53;5070705;28;20034;-46
2023/04/13 05:15:25;;;;;;;8.38;3.10;;;;;;;11.68;55.26;101015.78;5072483;28;20067;-49
2023/04/13 05:17:52;;;;;;;8.88;2.97;;;;;;;11.78;54.88;101016.16;5078767;28;20095;-47
2023/04/13 05:20:19;;;;;;;11.88;3.50;;;;;;;11.43;55.70;101028.97;5077015;28;20078;-45
2023/04/13 05:22:45;;;;;;;11.13;3.00;;;;;;;11.57;55.38;101033.31;5073348;28;20033;-45
2023/04/13 05:25:13;;;;;;;12.50;2.78;;;;;;;11.30;56.25;101040.53;5070011;28;21008;-46
2023/04/13 05:27:39;;;;;;;7.38;2.90;;;;;;;11.31;56.61;101044.03;5073196;28;20032;-48
2023/04/13 05:30:07;;;;;;;11.57;3.63;;;;;;;11.51;55.60;101047.56;5071613;28;20024;-46
2023/04/13 05:32:34;;;;;;;11.27;3.05;;;;;;;11.43;55.67;101050.41;5071490;28;20078;-45
2023/04/13 05:35:00;;;;;;;15.27;3.00;;;;;;;11.36;56.28;101054.97;5071196;28;20039;-45
2023/04/13 05:37:27;;;;;;;15.88;3.40;;;;;;;11.21;56.38;101051.66;5079346;28;20041;-45
2023/04/13 05:39:53;;;;;;;10.80;2.83;;;;;;;11.12;56.56;101045.69;5070322;28;20051;-45
2023/04/13 05:42:19;;;;;;;9.95;2.70;;;;;;;11.09;56.83;101036.19;5074811;28;20056;-46
2023/04/13 05:44:46;;;;;;;12.50;3.00;;;;;;;10.77;58.29;101035.13;5082498;28;20032;-46
2023/04/13 05:47:12;;;;;;;10.70;3.00;;;;;;;10.91;58.28;101035.13;5070852;28;20033;-47
2023/04/13 05:49:38;;;;;;;10.38;3.15;;;;;;;10.56;59.43;101029.91;5072233;28;20032;-45
2023/04/13 05:52:06;;;;;;;11.27;3.50;;;;;;;10.22;60.72;101033.47;5073407;28;20433;-45
2023/04/13 05:54:32;;;;;;;14.27;3.53;;;;;;;9.73;62.39;101047.78;5074507;28;20037;-45
2023/04/13 05:56:59;;;;;;;13.32;3.42;;;;;;;10.26;60.82;101040.91;5070423;28;20073;-45
2023/04/13 05:59:26;;;;;;;10.23;3.00;;;;;;;10.40;60.15;101038.28;5072304;28;20036;-47
2023/04/13 06:01:52;;;;;;;9.23;3.08;;;;;;;10.39;59.99;101031.28;5092871;28;20341;-47
2023/04/13 06:04:19;;;;;;;12.45;2.70;;;;;;;10.52;59.65;101028.66;5074793;28;20536;-46
2023/04/13 06:06:46;;;;;;;9.70;2.97;;;;;;;10.47;59.36;101031.94;5070149;28;20048;-45
2023/04/13 06:09:13;;;;;;;12.18;3.55;;;;;;;10.37;60.01;101026.13;5071885;28;20317;-45
2023/04/13 06:11:39;;;;;;;7.55;2.60;;;;;;;10.35;60.11;101030.03;5079321;28;20028;-46
2023/04/13 06:14:06;;;;;;;9.07;2.95;;;;;;;10.25;60.79;101030.41;5076383;28;20058;-46
2023/04/13 06:16:32;;;;;;;9.82;2.70;;;;;;;10.18;60.57;101021.50;5078823;28;20122;-46
2023/04/13 06:18:58;;;;;;;10.27;3.35;;;;;;;10.08;61.12;101021.03;5071571;28;20024;-47
2023/04/13 06:21:27;;;;;;;10.00;3.03;;;;;;;10.28;60.55;101022.00;5069491;28;20020;-45
2023/04/13 06:23:53;;;;;;;9.73;2.95;;;;;;;10.31;60.43;101014.38;5071245;28;20024;-45
2023/04/13 06:26:19;;;;;;;10.68;2.80;;;;;;;10.27;60.16;101006.94;5073426;28;20020;-45
2023/04/13 06:28:46;;;;;;;8.02;2.80;;;;;;;10.22;60.56;101014.72;5072067;28;20021;-46
2023/04/13 06:31:12;;;;;;;13.25;3.42;;;;;;;10.23;61.25;101022.59;5069173;28;20021;-46
2023/04/13 06:33:38;;;;;;;10.45;3.13;;;;;;;10.11;60.43;101032.16;5071261;28;20150;-45
2023/04/13 06:36:05;;;;;;;7.80;2.28;;;;;;;9.95;58.98;101036.00;5074116;28;20029;-45
2023/04/13 06:38:31;;;;;;;5.05;1.77;;;;;;;9.95;56.26;101037.84;5087786;28;20078;-46
2023/04/13 06:41:04;;;;;;;5.57;1.52;;;;;;;10.12;53.95;101031.13;5070746;28;20151;-47
2023/04/13 06:43:30;;;;;;;5.40;1.63;;;;;;;10.02;53.07;101036.84;5082453;28;20024;-47
2023/04/13 06:46:01;;;;;;;5.50;1.45;;;;;;;10.05;52.55;101046.34;5072763;28;20063;-49
2023/04/13 06:48:27;;;;;;;7.25;1.55;;;;;;;10.14;52.36;101060.34;5097408;28;20064;-46
2023/04/13 06:50:55;;;;;;;4.97;1.20;;;;;;;10.12;51.54;101054.38;5070873;28;20031;-46
2023/04/13 06:53:22;;;;;;;4.78;1.63;;;;;;;10.20;51.79;101060.38;5069796;28;20031;-47
2023/04/13 06:55:48;;;;;;;5.95;1.25;;;;;;;10.12;51.85;101063.25;5072222;28;20426;-45
2023/04/13 06:58:15;;;;;;;4.97;1.60;;;;;;;10.16;51.72;101056.47;5069719;28;20021;-47
2023/04/13 07:00:42;;;;;;;4.80;1.30;;;;;;;10.19;52.37;101057.91;5071613;28;20481;-49
2023/04/13 07:03:08;;;;;;;5.18;1.23;;;;;;;10.29;51.73;101051.22;5093849;28;20036;-45
2023/04/13 07:05:34;;;;;;;3.60;1.40;;;;;;;10.24;51.97;101045.63;5086567;28;20547;-48
2023/04/13 07:08:00;;;;;;;3.97;1.23;;;;;;;10.22;51.93;101044.16;5091900;28;20092;-45
2023/04/13 07:10:27;;;;;;;6.82;1.73;;;;;;;10.23;52.38;101041.31;5089696;28;20039;-46
2023/04/13 07:12:53;;;;;;;3.60;1.50;;;;;;;10.35;52.11;101054.13;5091605;28;20023;-48
2023/04/13 07:15:19;;;;;;;5.63;1.50;;;;;;;10.36;52.56;101053.91;5082194;28;20417;-45
2023/04/13 07:17:46;;;;;;;4.18;1.40;;;;;;;10.19;52.72;101048.03;5071528;28;20118;-45
2023/04/13 07:20:12;;;;;;;9.20;1.50;;;;;;;10.10;52.34;101059.91;5068523;28;20107;-46
2023/04/13 07:22:38;;;;;;;4.90;1.63;;;;;;;10.12;53.28;101059.75;5071024;28;20093;-48
2023/04/13 07:25:06;;;;;;;4.63;1.40;;;;;;;10.13;53.50;101059.53;5068745;28;20500;-47
2023/04/13 07:27:33;;;;;;;3.83;1.13;;;;;;;10.13;53.31;101061.38;5071073;28;20423;-45
2023/04/13 07:30:00;;;;;;;3.58;1.10;;;;;;;10.17;53.21;101068.81;5070448;28;20024;-46
2023/04/13 07:32:27;;;;;;;4.40;1.30;;;;;;;10.07;53.36;101068.34;5070299;28;20029;-46
2023/04/13 07:34:58;;;;;;;6.40;1.30;;;;;;;9.94;53.40;101065.59;5079811;28;20035;-44
2023/04/13 07:37:24;;;;;;;6.30;1.73;;;;;;;10.15;52.87;101075.38;5098773;28;20028;-44
2023/04/13 07:39:51;;;;;;;2.97;1.38;;;;;;;10.07;53.37;101073.69;5077644;28;20128;-44
2023/04/13 07:42:17;;;;;;;4.25;1.25;;;;;;;10.11;53.27;101083.00;5091141;28;20546;-44
2023/04/13 07:44:43;;;;;;;3.25;1.17;;;;;;;10.02;53.67;101073.47;5105100;28;20093;-44
2023/04/13 07:47:11;;;;;;;5.43;1.58;;;;;;;9.99;53.63;101071.16;5082971;28;20055;-43
2023/04/13 07:49:38;;;;;;;4.18;1.27;;;;;;;9.93;53.24;101066.59;5070952;28;20488;-44
2023/04/13 07:52:04;;;;;;;5.28;1.42;;;;;;;9.84;53.74;101068.63;5088460;28;20054;-44
2023/04/13 07:54:30;;;;;;;4.72;1.38;;;;;;;9.85;53.99;101070.25;5071514;28;20021;-44
2023/04/13 07:56:57;;;;;;;2.30;1.10;;;;;;;9.89;54.52;101079.56;5090008;28;20543;-44
2023/04/13 07:59:23;;;;;;;4.05;1.27;;;;;;;9.94;54.73;101070.94;5091006;28;20484;-45
2023/04/13 08:01:49;;;;;;;6.38;1.30;;;;;;;9.67;55.39;101076.09;5098013;28;20395;-46
2023/04/13 08:04:15;;;;;;;3.92;1.50;;;;;;;9.76;54.76;101074.94;5114233;28;20482;-46
2023/04/13 08:06:42;;;;;;;5.65;1.33;;;;;;;9.94;54.16;101076.31;5086035;28;20070;-45
2023/04/13 08:09:08;;;;;;;7.25;1.40;;;;;;;9.96;54.64;101084.94;5094978;28;20051;-45
2023/04/13 08:11:34;;;;;;;5.03;1.60;;;;;;;9.95;54.58;101083.28;5103808;28;20042;-45
2023/04/13 08:14:01;;;;;;;5.25;1.27;;;;;;;9.85;54.79;101072.13;5115369;28;20027;-49
2023/04/13 08:16:32;;;;;;;4.72;1.33;;;;;;;9.81;54.99;101081.53;5110581;28;20076;-47
2023/04/13 08:19:00;;;;;;;3.15;1.50;;;;;;;9.64;55.46;101081.00;5115166;28;20499;-48
2023/04/13 08:21:27;;;;;;;5.93;1.60;;;;;;;9.59;55.67;101083.44;5097475;28;20640;-47
2023/04/13 08:23:53;;;;;;;3.97;1.38;;;;;;;9.40;55.55;101087.59;5072822;28;20040;-46
2023/04/13 08:26:20;;;;;;;7.53;1.60;;;;;;;9.58;55.31;101079.94;5081507;28;20492;-47
2023/04/13 08:28:47;;;;;;;4.30;1.23;;;;;;;9.53;55.79;101067.16;5086373;28;20068;-48
2023/04/13 08:31:14;;;;;;;3.60;1.05;;;;;;;9.67;55.20;101070.75;5086910;28;20038;-47
2023/04/13 08:33:42;;;;;;;5.18;1.50;;;;;;;9.68;55.57;101067.06;5114721;28;20031;-48
2023/04/13 08:36:08;;;;;;;3.80;1.60;;;;;;;9.59;55.76;101064.72;5106971;28;20083;-49
2023/04/13 08:38:35;;;;;;;5.20;1.65;;;;;;;9.61;55.42;101066.19;5115124;27;20020;-48
2023/04/13 08:41:02;;;;;;;3.80;1.10;;;;;;;9.53;55.54;101069.00;5096262;28;20354;-48
2023/04/13 08:43:36;;;;;;;3.92;1.75;;;;;;;9.41;55.66;101062.53;5073086;28;20421;-48
2023/04/13 08:46:05;;;;;;;7.15;1.33;;;;;;;9.42;54.74;101064.19;5073473;28;20031;-45
2023/04/13 08:48:33;;;;;;;4.90;1.40;;;;;;;9.50;54.41;101074.75;5073065;28;20029;-47
2023/04/13 08:51:00;;;;;;;3.15;1.20;;;;;;;9.53;54.26;101066.31;5071497;28;20063;-45
2023/04/13 08:53:28;;;;;;;3.33;1.10;;;;;;;9.45;54.69;101069.16;5086586;28;20051;-49
2023/04/13 08:55:59;;;;;;;4.35;1.38;;;;;;;9.47;54.75;101065.25;5072551;28;20032;-46
2023/04/13 08:58:27;;;;;;;3.50;1.13;;;;;;;9.39;54.69;101065.41;5077178;28;20133;-47
2023/04/13 09:00:55;;;;;;;3.13;1.20;;;;;;;9.41;55.13;101066.03;5073796;28;20112;-46
2023/04/13 09:03:27;;;;;;;5.47;1.30;;;;;;;9.22;55.79;101061.34;5073055;28;20032;-49
2023/04/13 09:06:02;;;;;;;3.28;1.10;;;;;;;9.28;55.40;101059.75;5072968;28;20021;-47
2023/04/13 09:08:34;;;;;;;5.55;1.45;;;;;;;9.41;54.73;101063.34;5073605;28;20032;-46
2023/04/13 09:11:01;;;;;;;3.80;1.00;;;;;;;9.30;54.67;101049.69;5073660;28;20032;-45
2023/04/13 09:13:30;;;;;;;2.35;0.93;;;;;;;9.29;54.11;101040.03;5081805;28;20032;-46
2023/04/13 09:15:57;;;;;;;6.65;0.70;;;;;;;9.21;53.96;101044.47;5073228;28;20071;-48
2023/04/13 09:18:23;;;;;;;2.72;1.38;;;;;;;9.26;54.50;101046.56;5071176;28;20040;-47
2023/04/13 09:20:59;;;;;;;3.88;1.25;;;;;;;9.18;54.56;101039.53;5072816;28;20067;-45
2023/04/13 09:23:26;;;;;;;3.42;1.60;;;;;;;9.31;54.39;101041.47;5078680;28;20039;-49
2023/04/13 09:26:08;;;;;;;5.45;1.40;;;;;;;9.07;55.59;101045.38;5074690;28;20392;-47
2023/04/13 09:28:45;;;;;;;5.45;1.23;;;;;;;9.17;55.51;101047.75;5072653;28;20021;-46
2023/04/13 09:31:12;;;;;;;5.85;1.63;;;;;;;9.20;55.23;101040.16;5079378;28;20016;-49
2023/04/13 09:33:50;;;;;;;3.92;1.50;;;;;;;9.17;55.57;101043.22;5084946;28;20107;-46
2023/04/13 09:36:19;;;;;;;3.45;1.48;;;;;;;9.10;55.95;101055.66;5082981;28;20815;-46
2023/04/13 09:38:54;;;;;;;5.07;1.38;;;;;;;8.89;55.94;101048.50;5072566;28;20089;-49
2023/04/13 09:41:30;;;;;;;5.00;1.13;;;;;;;8.97;54.27;101048.38;5079284;28;20055;-46
2023/04/13 09:43:58;;;;;;;3.58;0.88;;;;;;;8.97;54.53;101053.69;5073891;28;20048;-48
2023/04/13 09:46:25;;;;;;;2.70;0.82;;;;;;;9.03;54.45;101062.78;5088976;28;20027;-45
2023/04/13 09:49:02;;;;;;;4.88;1.20;;;;;;;9.02;54.95;101054.97;5088516;28;20024;-48
2023/04/13 09:51:36;;;;;;;2.55;1.00;;;;;;;8.93;55.34;101046.25;5084572;28;20385;-45
2023/04/13 09:54:04;;;;;;;4.95;1.23;;;;;;;8.83;55.55;101054.59;5093120;28;20028;-46
2023/04/13 09:56:46;;;;;;;4.78;1.25;;;;;;;8.88;55.61;101054.00;5092724;28;20465;-48
2023/04/13 09:59:13;;;;;;;4.57;0.98;;;;;;;8.99;55.50;101041.00;5093211;28;20034;-49
2023/04/13 10:01:40;;;;;;;3.45;0.88;;;;;;;8.86;55.97;101045.38;5083582;28;20463;-49
2023/04/13 10:04:08;;;;;;;2.55;0.88;;;;;;;8.83;56.16;101043.94;5072470;28;20039;-46
2023/04/13 10:06:39;;;;;;;3.40;1.10;;;;;;;8.87;56.04;101042.50;5088789;28;20490;-46
2023/04/13 10:09:06;;;;;;;3.75;0.85;;;;;;;9.04;55.77;101037.75;5092850;28;20020;-49
2023/04/13 10:11:45;;;;;;;4.47;1.17;;;;;;;9.05;55.48;101027.88;5092253;28;20024;-48
2023/04/13 10:14:17;;;;;;;5.43;0.95;;;;;;;8.97;54.74;101026.19;5092745;28;20146;-47
2023/04/13 10:17:04;;;;;;;3.30;0.90;;;;;;;8.86;55.36;101026.69;5092914;28;20036;-46
2023/04/13 10:19:41;;;;;;;4.65;1.08;;;;;;;8.93;54.99;101036.41;5092626;28;20547;-48
2023/04/13 10:22:09;;;;;;;3.53;1.08;;;;;;;8.87;55.09;101041.69;5091352;28;20040;-45
2023/04/13 10:24:37;;;;;;;4.30;1.10;;;;;;;8.84;55.46;101044.75;5092013;28;20155;-46
2023/04/13 10:27:30;;;;;;;2.28;0.85;;;;;;;8.72;55.49;101047.91;5091640;28;20077;-46
2023/04/13 10:29:57;;;;;;;5.05;1.40;;;;;;;8.86;55.18;101042.69;5089458;28;20093;-45
2023/04/13 10:32:25;;;;;;;4.00;1.20;;;;;;;8.82;55.09;101050.25;5092409;28;20097;-45
2023/04/13 10:34:52;;;;;;;4.90;0.98;;;;;;;8.78;55.26;101053.50;5092693;28;20031;-45
2023/04/13 10:37:21;;;;;;;2.88;0.98;;;;;;;8.68;55.63;101054.63;5091827;28;20027;-45
2023/04/13 10:39:48;;;;;;;1.75;0.90;;;;;;;8.85;54.89;101057.91;5092069;28;20031;-46
2023/04/13 10:42:15;;;;;;;2.13;0.88;;;;;;;8.74;55.01;101053.06;5091806;28;20031;-45
2023/04/13 10:44:52;;;;;;;3.78;0.80;;;;;;;8.58;55.11;101046.09;5091696;28;20020;-45
2023/04/13 10:47:20;;;;;;;7.65;0.95;;;;;;;8.68;54.66;101040.47;5087864;28;20036;-46
2023/04/13 10:49:48;;;;;;;3.20;0.93;;;;;;;8.76;54.45;101034.19;5076717;28;20043;-45
2023/04/13 10:52:15;;;;;;;3.80;1.10;;;;;;;8.82;54.19;101041.41;5091829;28;20420;-45
2023/04/13 10:54:43;;;;;;;3.25;0.70;;;;;;;8.61;55.14;101028.91;5089586;28;20035;-45
2023/04/13 10:57:15;;;;;;;4.18;1.30;;;;;;;8.71;55.38;101035.56;5109857;28;20031;-46
2023/04/13 10:59:56;;;;;;;3.33;0.98;;;;;;;8.65;55.99;101032.81;5112063;28;20030;-44
2023/04/13 11:02:30;;;;;;;5.57;1.10;;;;;;;8.58;56.48;101023.94;5100620;28;20042;-45
2023/04/13 11:04:58;;;;;;;1.85;0.82;;;;;;;8.57;57.01;101024.94;5089331;28;20052;-45
2023/04/13 11:07:27;;;;;;;4.65;1.20;;;;;;;8.62;56.96;101034.03;5071026;28;20154;-45
2023/04/13 11:10:01;;;;;;;1.85;0.63;;;;;;;8.59;56.87;101029.06;5075424;28;20016;-44
2023/04/13 11:12:27;;;;;;;2.40;1.30;;;;;;;8.58;57.06;101024.75;5071615;28;20020;-45
2023/04/13 11:14:54;;;;;;;2.55;1.05;;;;;;;8.51;57.35;101023.03;5070692;28;20045;-45
2023/04/13 11:17:20;;;;;;;3.80;0.90;;;;;;;8.52;57.14;101033.50;5070885;28;20215;-45
2023/04/13 11:19:53;;;;;;;2.20;1.05;;;;;;;8.49;56.91;101023.19;5069637;28;20043;-45
2023/04/13 11:22:26;;;;;;;3.08;1.10;;;;;;;8.54;56.85;101033.31;5069041;28;20044;-45
2023/04/13 11:25:04;;;;;;;3.00;0.93;;;;;;;8.42;57.21;101035.66;5081819;28;20035;-46
2023/04/13 11:27:30;;;;;;;3.58;1.15;;;;;;;8.58;56.99;101029.25;5093069;28;20020;-45
2023/04/13 11:29:58;;;;;;;4.93;1.58;;;;;;;8.37;57.75;101046.88;5075707;28;20031;-45
2023/04/13 11:32:25;;;;;;;2.97;1.00;;;;;;;8.44;57.88;101046.97;5091572;28;20028;-45